sensor_id;sensor_type;location;lat;lon;timestamp;P1;durP1;ratioP1;P2;durP2;ratioP2
21837;SDS011;11081;45.946;6.140;2023-03-05T00:00:15;64.87;;;35.17;;
21837;SDS011;11081;45.946;6.140;2023-03-05T00:02:44;63.97;;;33.77;;
21837;SDS011;11081;45.946;6.140;2023-03-05T00:05:12;61.77;;;34.13;;
21837;SDS011;11081;45.946;6.140;2023-03-05T00:07:40;66.67;;;35.53;;
21837;SDS011;11081;45.946;6.140;2023-03-05T00:10:08;65.83;;;35.50;;
21837;SDS011;11081;45.946;6.140;2023-03-05T00:12:37;60.60;;;35.07;;
21837;SDS011;11081;45.946;6.140;2023-03-05T00:15:05;69.80;;;35.63;;
21837;SDS011;11081;45.946;6.140;2023-03-05T00:17:35;66.57;;;35.53;;
21837;SDS011;11081;45.946;6.140;2023-03-05T00:20:04;64.17;;;34.90;;
21837;SDS011;11081;45.946;6.140;2023-03-05T00:22:33;68.07;;;35.20;;
21837;SDS011;11081;45.946;6.140;2023-03-05T00:25:01;64.97;;;34.67;;
21837;SDS011;11081;45.946;6.140;2023-03-05T00:27:29;62.43;;;34.13;;
21837;SDS011;11081;45.946;6.140;2023-03-05T00:29:57;64.00;;;33.93;;
21837;SDS011;11081;45.946;6.140;2023-03-05T00:32:25;64.50;;;35.50;;
21837;SDS011;11081;45.946;6.140;2023-03-05T00:34:54;66.77;;;35.77;;
21837;SDS011;11081;45.946;6.140;2023-03-05T00:37:22;66.70;;;37.87;;
21837;SDS011;11081;45.946;6.140;2023-03-05T00:39:50;65.43;;;35.67;;
21837;SDS011;11081;45.946;6.140;2023-03-05T00:42:18;67.67;;;36.63;;
21837;SDS011;11081;45.946;6.140;2023-03-05T00:44:46;66.50;;;34.87;;
21837;SDS011;11081;45.946;6.140;2023-03-05T00:47:14;69.67;;;36.57;;
21837;SDS011;11081;45.946;6.140;2023-03-05T00:49:43;68.37;;;35.90;;
21837;SDS011;11081;45.946;6.140;2023-03-05T00:52:13;68.47;;;35.87;;
21837;SDS011;11081;45.946;6.140;2023-03-05T00:54:41;64.10;;;35.10;;
21837;SDS011;11081;45.946;6.140;2023-03-05T00:57:09;66.77;;;34.47;;
21837;SDS011;11081;45.946;6.140;2023-03-05T00:59:38;67.80;;;36.53;;
21837;SDS011;11081;45.946;6.140;2023-03-05T01:02:05;60.83;;;33.40;;
21837;SDS011;11081;45.946;6.140;2023-03-05T01:04:33;64.60;;;33.63;;
21837;SDS011;11081;45.946;6.140;2023-03-05T01:07:03;64.67;;;34.87;;
21837;SDS011;11081;45.946;6.140;2023-03-05T01:09:33;63.67;;;34.77;;
21837;SDS011;11081;45.946;6.140;2023-03-05T01:12:01;68.33;;;35.33;;
21837;SDS011;11081;45.946;6.140;2023-03-05T01:14:29;70.43;;;36.43;;
21837;SDS011;11081;45.946;6.140;2023-03-05T01:16:57;66.47;;;34.70;;
21837;SDS011;11081;45.946;6.140;2023-03-05T01:19:25;64.43;;;33.73;;
21837;SDS011;11081;45.946;6.140;2023-03-05T01:21:53;64.77;;;34.87;;
21837;SDS011;11081;45.946;6.140;2023-03-05T01:24:21;62.77;;;34.47;;
21837;SDS011;11081;45.946;6.140;2023-03-05T01:26:51;65.87;;;35.43;;
21837;SDS011;11081;45.946;6.140;2023-03-05T01:29:19;64.97;;;34.60;;
21837;SDS011;11081;45.946;6.140;2023-03-05T01:31:47;60.87;;;32.63;;
21837;SDS011;11081;45.946;6.140;2023-03-05T01:34:15;65.00;;;34.17;;
21837;SDS011;11081;45.946;6.140;2023-03-05T01:36:43;62.67;;;33.67;;
21837;SDS011;11081;45.946;6.140;2023-03-05T01:39:11;69.47;;;34.93;;
21837;SDS011;11081;45.946;6.140;2023-03-05T01:41:39;65.77;;;33.97;;
21837;SDS011;11081;45.946;6.140;2023-03-05T01:44:14;68.87;;;34.77;;
21837;SDS011;11081;45.946;6.140;2023-03-05T01:46:47;63.70;;;33.63;;
21837;SDS011;11081;45.946;6.140;2023-03-05T01:49:17;61.47;;;33.30;;
21837;SDS011;11081;45.946;6.140;2023-03-05T01:51:53;63.63;;;32.50;;
21837;SDS011;11081;45.946;6.140;2023-03-05T01:54:29;61.27;;;31.83;;
21837;SDS011;11081;45.946;6.140;2023-03-05T01:57:01;55.07;;;30.47;;
21837;SDS011;11081;45.946;6.140;2023-03-05T01:59:35;61.23;;;30.87;;
21837;SDS011;11081;45.946;6.140;2023-03-05T02:02:05;61.03;;;31.70;;
21837;SDS011;11081;45.946;6.140;2023-03-05T02:04:35;61.40;;;31.27;;
21837;SDS011;11081;45.946;6.140;2023-03-05T02:07:09;55.87;;;31.67;;
21837;SDS011;11081;45.946;6.140;2023-03-05T02:09:38;59.03;;;31.63;;
21837;SDS011;11081;45.946;6.140;2023-03-05T02:12:07;60.80;;;32.33;;
21837;SDS011;11081;45.946;6.140;2023-03-05T02:14:38;57.47;;;31.53;;
21837;SDS011;11081;45.946;6.140;2023-03-05T02:17:09;57.07;;;32.13;;
21837;SDS011;11081;45.946;6.140;2023-03-05T02:19:48;60.83;;;32.20;;
21837;SDS011;11081;45.946;6.140;2023-03-05T02:22:21;61.80;;;31.37;;
21837;SDS011;11081;45.946;6.140;2023-03-05T02:24:50;63.17;;;32.03;;
21837;SDS011;11081;45.946;6.140;2023-03-05T02:27:20;58.83;;;30.27;;
21837;SDS011;11081;45.946;6.140;2023-03-05T02:29:53;59.13;;;31.70;;
21837;SDS011;11081;45.946;6.140;2023-03-05T02:32:20;58.17;;;32.23;;
21837;SDS011;11081;45.946;6.140;2023-03-05T02:34:49;62.57;;;33.07;;
21837;SDS011;11081;45.946;6.140;2023-03-05T02:37:17;60.77;;;31.73;;
21837;SDS011;11081;45.946;6.140;2023-03-05T02:39:46;57.10;;;31.00;;
21837;SDS011;11081;45.946;6.140;2023-03-05T02:42:14;61.63;;;33.27;;
21837;SDS011;11081;45.946;6.140;2023-03-05T02:44:42;59.13;;;31.37;;
21837;SDS011;11081;45.946;6.140;2023-03-05T02:47:10;67.40;;;33.17;;
21837;SDS011;11081;45.946;6.140;2023-03-05T02:49:38;61.27;;;32.07;;
21837;SDS011;11081;45.946;6.140;2023-03-05T02:52:06;57.40;;;31.43;;
21837;SDS011;11081;45.946;6.140;2023-03-05T02:54:34;65.83;;;33.30;;
21837;SDS011;11081;45.946;6.140;2023-03-05T02:57:04;57.03;;;30.23;;
21837;SDS011;11081;45.946;6.140;2023-03-05T02:59:31;58.97;;;30.70;;
21837;SDS011;11081;45.946;6.140;2023-03-05T03:02:00;61.40;;;31.70;;
21837;SDS011;11081;45.946;6.140;2023-03-05T03:04:28;52.30;;;30.53;;
21837;SDS011;11081;45.946;6.140;2023-03-05T03:06:56;59.90;;;29.50;;
21837;SDS011;11081;45.946;6.140;2023-03-05T03:09:24;53.23;;;30.47;;
21837;SDS011;11081;45.946;6.140;2023-03-05T03:11:52;61.27;;;31.77;;
21837;SDS011;11081;45.946;6.140;2023-03-05T03:14:21;61.63;;;30.27;;
21837;SDS011;11081;45.946;6.140;2023-03-05T03:16:49;56.17;;;30.30;;
21837;SDS011;11081;45.946;6.140;2023-03-05T03:19:17;58.57;;;30.93;;
21837;SDS011;11081;45.946;6.140;2023-03-05T03:21:45;56.43;;;30.27;;
21837;SDS011;11081;45.946;6.140;2023-03-05T03:24:15;57.47;;;31.30;;
21837;SDS011;11081;45.946;6.140;2023-03-05T03:26:43;60.90;;;30.63;;
21837;SDS011;11081;45.946;6.140;2023-03-05T03:29:11;58.03;;;30.33;;
21837;SDS011;11081;45.946;6.140;2023-03-05T03:31:41;60.50;;;31.20;;
21837;SDS011;11081;45.946;6.140;2023-03-05T03:34:10;60.30;;;30.40;;
21837;SDS011;11081;45.946;6.140;2023-03-05T03:36:40;54.80;;;30.57;;
21837;SDS011;11081;45.946;6.140;2023-03-05T03:39:09;62.93;;;31.70;;
21837;SDS011;11081;45.946;6.140;2023-03-05T03:41:39;59.90;;;31.83;;
21837;SDS011;11081;45.946;6.140;2023-03-05T03:44:08;60.33;;;32.60;;
21837;SDS011;11081;45.946;6.140;2023-03-05T03:46:37;58.17;;;31.80;;
21837;SDS011;11081;45.946;6.140;2023-03-05T03:49:07;62.93;;;32.53;;
21837;SDS011;11081;45.946;6.140;2023-03-05T03:51:35;59.93;;;31.33;;
21837;SDS011;11081;45.946;6.140;2023-03-05T03:54:03;62.57;;;31.53;;
21837;SDS011;11081;45.946;6.140;2023-03-05T03:56:31;56.67;;;30.83;;
21837;SDS011;11081;45.946;6.140;2023-03-05T03:58:58;61.83;;;32.33;;
21837;SDS011;11081;45.946;6.140;2023-03-05T04:01:26;64.20;;;31.77;;
21837;SDS011;11081;45.946;6.140;2023-03-05T04:03:54;59.00;;;32.50;;
21837;SDS011;11081;45.946;6.140;2023-03-05T04:06:24;57.77;;;31.20;;
21837;SDS011;11081;45.946;6.140;2023-03-05T04:08:52;62.37;;;33.20;;
21837;SDS011;11081;45.946;6.140;2023-03-05T04:11:20;59.50;;;30.87;;
21837;SDS011;11081;45.946;6.140;2023-03-05T04:13:48;64.13;;;31.97;;
21837;SDS011;11081;45.946;6.140;2023-03-05T04:16:17;58.77;;;32.27;;
21837;SDS011;11081;45.946;6.140;2023-03-05T04:18:46;61.20;;;30.30;;
21837;SDS011;11081;45.946;6.140;2023-03-05T04:21:14;61.83;;;32.67;;
21837;SDS011;11081;45.946;6.140;2023-03-05T04:23:43;64.90;;;31.93;;
21837;SDS011;11081;45.946;6.140;2023-03-05T04:26:11;56.70;;;31.70;;
21837;SDS011;11081;45.946;6.140;2023-03-05T04:28:39;60.23;;;34.00;;
21837;SDS011;11081;45.946;6.140;2023-03-05T04:31:07;63.87;;;34.30;;
21837;SDS011;11081;45.946;6.140;2023-03-05T04:33:35;61.83;;;32.80;;
21837;SDS011;11081;45.946;6.140;2023-03-05T04:36:03;65.97;;;33.37;;
21837;SDS011;11081;45.946;6.140;2023-03-05T04:38:32;61.53;;;33.00;;
21837;SDS011;11081;45.946;6.140;2023-03-05T04:41:01;62.43;;;33.37;;
21837;SDS011;11081;45.946;6.140;2023-03-05T04:43:29;63.37;;;32.00;;
21837;SDS011;11081;45.946;6.140;2023-03-05T04:45:57;61.27;;;32.50;;
21837;SDS011;11081;45.946;6.140;2023-03-05T04:48:25;57.63;;;31.00;;
21837;SDS011;11081;45.946;6.140;2023-03-05T04:50:53;60.33;;;31.93;;
21837;SDS011;11081;45.946;6.140;2023-03-05T04:53:23;57.20;;;30.37;;
21837;SDS011;11081;45.946;6.140;2023-03-05T04:55:51;62.47;;;32.07;;
21837;SDS011;11081;45.946;6.140;2023-03-05T04:58:21;58.93;;;31.37;;
21837;SDS011;11081;45.946;6.140;2023-03-05T05:00:50;57.87;;;30.10;;
21837;SDS011;11081;45.946;6.140;2023-03-05T05:03:18;53.67;;;28.97;;
21837;SDS011;11081;45.946;6.140;2023-03-05T05:05:52;57.13;;;29.33;;
21837;SDS011;11081;45.946;6.140;2023-03-05T05:08:21;54.83;;;28.77;;
21837;SDS011;11081;45.946;6.140;2023-03-05T05:10:56;50.10;;;28.27;;
21837;SDS011;11081;45.946;6.140;2023-03-05T05:13:27;46.30;;;26.37;;
21837;SDS011;11081;45.946;6.140;2023-03-05T05:15:56;56.67;;;27.87;;
21837;SDS011;11081;45.946;6.140;2023-03-05T05:18:24;52.90;;;27.30;;
21837;SDS011;11081;45.946;6.140;2023-03-05T05:20:52;52.80;;;27.63;;
21837;SDS011;11081;45.946;6.140;2023-03-05T05:23:20;52.30;;;27.83;;
21837;SDS011;11081;45.946;6.140;2023-03-05T05:25:54;53.10;;;26.83;;
21837;SDS011;11081;45.946;6.140;2023-03-05T05:28:23;49.93;;;26.70;;
21837;SDS011;11081;45.946;6.140;2023-03-05T05:30:52;47.63;;;25.83;;
21837;SDS011;11081;45.946;6.140;2023-03-05T05:33:21;54.57;;;25.53;;
21837;SDS011;11081;45.946;6.140;2023-03-05T05:35:49;45.70;;;25.60;;
21837;SDS011;11081;45.946;6.140;2023-03-05T05:38:17;47.93;;;25.53;;
21837;SDS011;11081;45.946;6.140;2023-03-05T05:40:45;49.20;;;26.27;;
21837;SDS011;11081;45.946;6.140;2023-03-05T05:43:13;48.97;;;26.57;;
21837;SDS011;11081;45.946;6.140;2023-03-05T05:45:41;45.60;;;24.37;;
21837;SDS011;11081;45.946;6.140;2023-03-05T05:48:12;47.70;;;24.57;;
21837;SDS011;11081;45.946;6.140;2023-03-05T05:50:39;45.10;;;24.73;;
21837;SDS011;11081;45.946;6.140;2023-03-05T05:53:07;46.10;;;24.97;;
21837;SDS011;11081;45.946;6.140;2023-03-05T05:55:38;51.37;;;24.77;;
21837;SDS011;11081;45.946;6.140;2023-03-05T05:58:06;45.17;;;24.80;;
21837;SDS011;11081;45.946;6.140;2023-03-05T06:00:34;43.20;;;24.43;;
21837;SDS011;11081;45.946;6.140;2023-03-05T06:03:02;47.67;;;24.53;;
21837;SDS011;11081;45.946;6.140;2023-03-05T06:05:32;54.27;;;27.63;;
21837;SDS011;11081;45.946;6.140;2023-03-05T06:08:00;46.20;;;25.57;;
21837;SDS011;11081;45.946;6.140;2023-03-05T06:10:28;49.83;;;25.97;;
21837;SDS011;11081;45.946;6.140;2023-03-05T06:12:55;51.40;;;26.83;;
21837;SDS011;11081;45.946;6.140;2023-03-05T06:15:23;47.13;;;26.30;;
21837;SDS011;11081;45.946;6.140;2023-03-05T06:17:51;47.37;;;23.40;;
21837;SDS011;11081;45.946;6.140;2023-03-05T06:20:20;47.77;;;26.57;;
21837;SDS011;11081;45.946;6.140;2023-03-05T06:22:49;47.23;;;25.13;;
21837;SDS011;11081;45.946;6.140;2023-03-05T06:25:17;45.67;;;25.13;;
21837;SDS011;11081;45.946;6.140;2023-03-05T06:27:45;49.80;;;26.00;;
21837;SDS011;11081;45.946;6.140;2023-03-05T06:30:13;45.93;;;25.40;;
21837;SDS011;11081;45.946;6.140;2023-03-05T06:32:42;50.47;;;25.47;;
21837;SDS011;11081;45.946;6.140;2023-03-05T06:35:09;49.00;;;25.13;;
21837;SDS011;11081;45.946;6.140;2023-03-05T06:37:39;48.47;;;23.37;;
21837;SDS011;11081;45.946;6.140;2023-03-05T06:40:09;48.07;;;23.97;;
21837;SDS011;11081;45.946;6.140;2023-03-05T06:42:38;47.63;;;24.03;;
21837;SDS011;11081;45.946;6.140;2023-03-05T06:45:07;50.23;;;24.23;;
21837;SDS011;11081;45.946;6.140;2023-03-05T06:47:36;43.97;;;22.57;;
21837;SDS011;11081;45.946;6.140;2023-03-05T06:50:04;46.63;;;23.43;;
21837;SDS011;11081;45.946;6.140;2023-03-05T06:52:33;52.03;;;25.20;;
21837;SDS011;11081;45.946;6.140;2023-03-05T06:55:01;44.83;;;24.50;;
21837;SDS011;11081;45.946;6.140;2023-03-05T06:57:30;46.53;;;24.77;;
21837;SDS011;11081;45.946;6.140;2023-03-05T06:59:58;48.40;;;24.07;;
21837;SDS011;11081;45.946;6.140;2023-03-05T07:02:26;49.70;;;26.00;;
21837;SDS011;11081;45.946;6.140;2023-03-05T07:04:54;47.73;;;25.47;;
21837;SDS011;11081;45.946;6.140;2023-03-05T07:07:22;45.10;;;24.30;;
21837;SDS011;11081;45.946;6.140;2023-03-05T07:09:50;46.70;;;24.83;;
21837;SDS011;11081;45.946;6.140;2023-03-05T07:12:19;50.27;;;25.83;;
21837;SDS011;11081;45.946;6.140;2023-03-05T07:14:48;44.60;;;24.17;;
21837;SDS011;11081;45.946;6.140;2023-03-05T07:17:16;43.03;;;23.87;;
21837;SDS011;11081;45.946;6.140;2023-03-05T07:19:44;46.97;;;24.40;;
21837;SDS011;11081;45.946;6.140;2023-03-05T07:22:12;46.43;;;25.37;;
21837;SDS011;11081;45.946;6.140;2023-03-05T07:24:40;48.13;;;26.80;;
21837;SDS011;11081;45.946;6.140;2023-03-05T07:27:08;47.90;;;26.63;;
21837;SDS011;11081;45.946;6.140;2023-03-05T07:29:36;52.80;;;26.53;;
21837;SDS011;11081;45.946;6.140;2023-03-05T07:32:06;48.27;;;25.93;;
21837;SDS011;11081;45.946;6.140;2023-03-05T07:34:35;49.33;;;26.77;;
21837;SDS011;11081;45.946;6.140;2023-03-05T07:37:04;53.23;;;25.97;;
21837;SDS011;11081;45.946;6.140;2023-03-05T07:39:32;52.63;;;27.57;;
21837;SDS011;11081;45.946;6.140;2023-03-05T07:42:00;47.83;;;26.07;;
21837;SDS011;11081;45.946;6.140;2023-03-05T07:44:45;46.03;;;26.07;;
21837;SDS011;11081;45.946;6.140;2023-03-05T07:47:14;51.43;;;26.70;;
21837;SDS011;11081;45.946;6.140;2023-03-05T07:49:42;49.23;;;27.03;;
21837;SDS011;11081;45.946;6.140;2023-03-05T07:52:10;52.20;;;27.00;;
21837;SDS011;11081;45.946;6.140;2023-03-05T07:54:38;49.80;;;26.47;;
21837;SDS011;11081;45.946;6.140;2023-03-05T07:57:06;49.90;;;28.30;;
21837;SDS011;11081;45.946;6.140;2023-03-05T07:59:35;51.70;;;27.20;;
21837;SDS011;11081;45.946;6.140;2023-03-05T08:02:04;46.90;;;26.47;;
21837;SDS011;11081;45.946;6.140;2023-03-05T08:04:33;50.83;;;26.20;;
21837;SDS011;11081;45.946;6.140;2023-03-05T08:07:02;47.07;;;26.53;;
21837;SDS011;11081;45.946;6.140;2023-03-05T08:09:30;51.33;;;27.37;;
21837;SDS011;11081;45.946;6.140;2023-03-05T08:11:58;47.63;;;25.67;;
21837;SDS011;11081;45.946;6.140;2023-03-05T08:14:26;49.00;;;26.33;;
21837;SDS011;11081;45.946;6.140;2023-03-05T08:16:54;45.73;;;25.50;;
21837;SDS011;11081;45.946;6.140;2023-03-05T08:19:22;49.00;;;26.90;;
21837;SDS011;11081;45.946;6.140;2023-03-05T08:21:51;49.10;;;27.23;;
21837;SDS011;11081;45.946;6.140;2023-03-05T08:24:21;55.57;;;26.90;;
21837;SDS011;11081;45.946;6.140;2023-03-05T08:26:54;46.67;;;26.43;;
21837;SDS011;11081;45.946;6.140;2023-03-05T08:29:23;51.37;;;27.10;;
21837;SDS011;11081;45.946;6.140;2023-03-05T08:31:51;54.00;;;28.10;;
21837;SDS011;11081;45.946;6.140;2023-03-05T08:34:21;53.20;;;29.63;;
21837;SDS011;11081;45.946;6.140;2023-03-05T08:36:49;56.17;;;28.27;;
21837;SDS011;11081;45.946;6.140;2023-03-05T08:39:18;49.87;;;27.77;;
21837;SDS011;11081;45.946;6.140;2023-03-05T08:41:46;50.97;;;27.83;;
21837;SDS011;11081;45.946;6.140;2023-03-05T08:44:14;51.53;;;27.87;;
21837;SDS011;11081;45.946;6.140;2023-03-05T08:46:42;55.03;;;28.13;;
21837;SDS011;11081;45.946;6.140;2023-03-05T08:49:10;58.43;;;28.13;;
21837;SDS011;11081;45.946;6.140;2023-03-05T08:51:38;51.03;;;27.57;;
21837;SDS011;11081;45.946;6.140;2023-03-05T08:54:06;53.60;;;29.20;;
21837;SDS011;11081;45.946;6.140;2023-03-05T08:56:37;57.80;;;29.57;;
21837;SDS011;11081;45.946;6.140;2023-03-05T08:59:05;52.97;;;28.40;;
21837;SDS011;11081;45.946;6.140;2023-03-05T09:01:34;48.50;;;27.53;;
21837;SDS011;11081;45.946;6.140;2023-03-05T09:04:02;59.70;;;29.77;;
21837;SDS011;11081;45.946;6.140;2023-03-05T09:06:30;52.27;;;27.97;;
21837;SDS011;11081;45.946;6.140;2023-03-05T09:08:59;51.50;;;28.17;;
21837;SDS011;11081;45.946;6.140;2023-03-05T09:11:27;50.00;;;27.43;;
21837;SDS011;11081;45.946;6.140;2023-03-05T09:13:57;55.93;;;28.47;;
21837;SDS011;11081;45.946;6.140;2023-03-05T09:16:25;50.30;;;27.63;;
21837;SDS011;11081;45.946;6.140;2023-03-05T09:18:53;54.33;;;29.27;;
21837;SDS011;11081;45.946;6.140;2023-03-05T09:21:21;58.73;;;30.67;;
21837;SDS011;11081;45.946;6.140;2023-03-05T09:23:49;55.03;;;28.80;;
21837;SDS011;11081;45.946;6.140;2023-03-05T09:26:17;57.83;;;29.00;;
21837;SDS011;11081;45.946;6.140;2023-03-05T09:28:46;58.70;;;30.27;;
21837;SDS011;11081;45.946;6.140;2023-03-05T09:31:16;57.03;;;29.67;;
21837;SDS011;11081;45.946;6.140;2023-03-05T09:33:45;56.80;;;28.60;;
21837;SDS011;11081;45.946;6.140;2023-03-05T09:36:18;60.10;;;28.87;;
21837;SDS011;11081;45.946;6.140;2023-03-05T09:38:48;56.37;;;29.30;;
21837;SDS011;11081;45.946;6.140;2023-03-05T09:41:19;56.40;;;29.03;;
21837;SDS011;11081;45.946;6.140;2023-03-05T09:43:54;50.73;;;27.20;;
21837;SDS011;11081;45.946;6.140;2023-03-05T09:46:36;54.70;;;28.23;;
21837;SDS011;11081;45.946;6.140;2023-03-05T09:49:13;58.23;;;29.10;;
21837;SDS011;11081;45.946;6.140;2023-03-05T09:51:44;48.90;;;27.63;;
21837;SDS011;11081;45.946;6.140;2023-03-05T09:54:15;50.13;;;28.77;;
21837;SDS011;11081;45.946;6.140;2023-03-05T09:56:46;54.10;;;28.43;;
21837;SDS011;11081;45.946;6.140;2023-03-05T09:59:19;54.00;;;28.57;;
21837;SDS011;11081;45.946;6.140;2023-03-05T10:01:56;56.80;;;29.20;;
21837;SDS011;11081;45.946;6.140;2023-03-05T10:04:32;60.40;;;28.30;;
21837;SDS011;11081;45.946;6.140;2023-03-05T10:07:11;58.10;;;27.90;;
21837;SDS011;11081;45.946;6.140;2023-03-05T10:09:44;55.07;;;29.70;;
21837;SDS011;11081;45.946;6.140;2023-03-05T10:12:19;58.43;;;29.80;;
21837;SDS011;11081;45.946;6.140;2023-03-05T10:14:53;58.37;;;30.00;;
21837;SDS011;11081;45.946;6.140;2023-03-05T10:17:35;56.50;;;30.77;;
21837;SDS011;11081;45.946;6.140;2023-03-05T10:23:13;54.47;;;29.50;;
21837;SDS011;11081;45.946;6.140;2023-03-05T10:28:56;59.20;;;31.07;;
21837;SDS011;11081;45.946;6.140;2023-03-05T10:31:41;56.87;;;29.40;;
21837;SDS011;11081;45.946;6.140;2023-03-05T10:34:24;57.37;;;29.27;;
21837;SDS011;11081;45.946;6.140;2023-03-05T10:37:09;62.90;;;30.33;;
21837;SDS011;11081;45.946;6.140;2023-03-05T10:42:40;51.60;;;29.07;;
21837;SDS011;11081;45.946;6.140;2023-03-05T10:45:14;62.20;;;31.00;;
21837;SDS011;11081;45.946;6.140;2023-03-05T10:47:45;57.90;;;29.50;;
21837;SDS011;11081;45.946;6.140;2023-03-05T10:50:20;61.60;;;30.40;;
21837;SDS011;11081;45.946;6.140;2023-03-05T10:52:51;59.47;;;30.53;;
21837;SDS011;11081;45.946;6.140;2023-03-05T10:55:31;55.03;;;29.73;;
21837;SDS011;11081;45.946;6.140;2023-03-05T10:57:59;58.43;;;29.83;;
21837;SDS011;11081;45.946;6.140;2023-03-05T11:00:27;56.97;;;29.53;;
21837;SDS011;11081;45.946;6.140;2023-03-05T11:02:58;56.50;;;29.47;;
21837;SDS011;11081;45.946;6.140;2023-03-05T11:05:43;65.77;;;31.47;;
21837;SDS011;11081;45.946;6.140;2023-03-05T11:08:23;64.73;;;31.80;;
21837;SDS011;11081;45.946;6.140;2023-03-05T11:11:04;57.87;;;29.83;;
21837;SDS011;11081;45.946;6.140;2023-03-05T11:13:40;56.07;;;29.37;;
21837;SDS011;11081;45.946;6.140;2023-03-05T11:16:23;55.70;;;29.90;;
21837;SDS011;11081;45.946;6.140;2023-03-05T11:19:11;63.53;;;31.97;;
21837;SDS011;11081;45.946;6.140;2023-03-05T11:21:45;55.93;;;30.30;;
21837;SDS011;11081;45.946;6.140;2023-03-05T11:24:31;58.20;;;28.97;;
21837;SDS011;11081;45.946;6.140;2023-03-05T11:26:59;68.33;;;31.93;;
21837;SDS011;11081;45.946;6.140;2023-03-05T11:29:28;57.93;;;30.50;;
21837;SDS011;11081;45.946;6.140;2023-03-05T11:32:03;56.97;;;30.60;;
21837;SDS011;11081;45.946;6.140;2023-03-05T11:34:42;59.80;;;30.37;;
21837;SDS011;11081;45.946;6.140;2023-03-05T11:37:20;59.80;;;30.25;;
21837;SDS011;11081;45.946;6.140;2023-03-05T11:40:04;61.20;;;30.73;;
21837;SDS011;11081;45.946;6.140;2023-03-05T11:42:42;64.90;;;32.03;;
21837;SDS011;11081;45.946;6.140;2023-03-05T11:45:13;58.70;;;30.17;;
21837;SDS011;11081;45.946;6.140;2023-03-05T11:47:45;69.43;;;31.77;;
21837;SDS011;11081;45.946;6.140;2023-03-05T11:50:18;58.33;;;30.33;;
21837;SDS011;11081;45.946;6.140;2023-03-05T11:52:50;63.40;;;30.67;;
21837;SDS011;11081;45.946;6.140;2023-03-05T11:55:20;57.43;;;29.23;;
21837;SDS011;11081;45.946;6.140;2023-03-05T11:57:56;56.73;;;30.40;;
21837;SDS011;11081;45.946;6.140;2023-03-05T12:00:31;59.35;;;30.63;;
21837;SDS011;11081;45.946;6.140;2023-03-05T12:03:04;61.83;;;31.63;;
21837;SDS011;11081;45.946;6.140;2023-03-05T12:05:38;57.30;;;29.97;;
21837;SDS011;11081;45.946;6.140;2023-03-05T12:08:12;61.53;;;31.40;;
21837;SDS011;11081;45.946;6.140;2023-03-05T12:10:45;59.83;;;30.03;;
21837;SDS011;11081;45.946;6.140;2023-03-05T12:13:14;59.80;;;30.40;;
21837;SDS011;11081;45.946;6.140;2023-03-05T12:15:55;63.00;;;31.20;;
21837;SDS011;11081;45.946;6.140;2023-03-05T12:18:32;53.07;;;28.43;;
21837;SDS011;11081;45.946;6.140;2023-03-05T12:21:14;65.68;;;31.40;;
21837;SDS011;11081;45.946;6.140;2023-03-05T12:23:53;57.57;;;31.33;;
21837;SDS011;11081;45.946;6.140;2023-03-05T12:29:28;60.13;;;30.23;;
21837;SDS011;11081;45.946;6.140;2023-03-05T12:32:04;57.63;;;30.10;;
21837;SDS011;11081;45.946;6.140;2023-03-05T12:34:57;61.72;;;30.08;;
21837;SDS011;11081;45.946;6.140;2023-03-05T12:40:53;64.57;;;32.67;;
21837;SDS011;11081;45.946;6.140;2023-03-05T12:44:09;57.87;;;30.13;;
21837;SDS011;11081;45.946;6.140;2023-03-05T12:46:45;62.23;;;32.93;;
21837;SDS011;11081;45.946;6.140;2023-03-05T12:49:37;62.22;;;31.35;;
21837;SDS011;11081;45.946;6.140;2023-03-05T12:52:10;60.27;;;30.43;;
21837;SDS011;11081;45.946;6.140;2023-03-05T12:54:42;56.10;;;28.75;;
21837;SDS011;11081;45.946;6.140;2023-03-05T12:57:14;57.63;;;30.63;;
21837;SDS011;11081;45.946;6.140;2023-03-05T12:59:45;62.50;;;31.37;;
21837;SDS011;11081;45.946;6.140;2023-03-05T13:02:19;62.65;;;30.42;;
21837;SDS011;11081;45.946;6.140;2023-03-05T13:04:57;53.50;;;29.02;;
21837;SDS011;11081;45.946;6.140;2023-03-05T13:07:27;54.90;;;28.70;;
21837;SDS011;11081;45.946;6.140;2023-03-05T13:09:55;60.57;;;31.10;;
21837;SDS011;11081;45.946;6.140;2023-03-05T13:12:25;61.35;;;30.88;;
21837;SDS011;11081;45.946;6.140;2023-03-05T13:15:00;53.37;;;28.87;;
21837;SDS011;11081;45.946;6.140;2023-03-05T13:17:31;53.92;;;27.70;;
21837;SDS011;11081;45.946;6.140;2023-03-05T13:23:13;53.35;;;28.88;;
21837;SDS011;11081;45.946;6.140;2023-03-05T13:25:43;57.20;;;28.20;;
21837;SDS011;11081;45.946;6.140;2023-03-05T13:28:22;55.38;;;28.48;;
21837;SDS011;11081;45.946;6.140;2023-03-05T13:30:51;56.85;;;30.60;;
21837;SDS011;11081;45.946;6.140;2023-03-05T13:33:22;56.00;;;30.92;;
21837;SDS011;11081;45.946;6.140;2023-03-05T13:35:52;56.53;;;28.88;;
21837;SDS011;11081;45.946;6.140;2023-03-05T13:38:23;60.08;;;30.20;;
21837;SDS011;11081;45.946;6.140;2023-03-05T13:40:59;58.50;;;28.63;;
21837;SDS011;11081;45.946;6.140;2023-03-05T13:43:32;55.17;;;29.08;;
21837;SDS011;11081;45.946;6.140;2023-03-05T13:46:01;53.58;;;28.00;;
21837;SDS011;11081;45.946;6.140;2023-03-05T13:48:29;57.50;;;29.67;;
21837;SDS011;11081;45.946;6.140;2023-03-05T13:50:57;56.67;;;30.00;;
21837;SDS011;11081;45.946;6.140;2023-03-05T13:53:27;56.60;;;28.15;;
21837;SDS011;11081;45.946;6.140;2023-03-05T13:55:57;51.83;;;27.80;;
21837;SDS011;11081;45.946;6.140;2023-03-05T13:58:40;52.65;;;28.33;;
21837;SDS011;11081;45.946;6.140;2023-03-05T14:01:13;54.17;;;27.65;;
21837;SDS011;11081;45.946;6.140;2023-03-05T14:03:48;52.92;;;27.23;;
21837;SDS011;11081;45.946;6.140;2023-03-05T14:06:17;52.25;;;28.70;;
21837;SDS011;11081;45.946;6.140;2023-03-05T14:08:50;56.15;;;28.80;;
21837;SDS011;11081;45.946;6.140;2023-03-05T14:11:19;54.30;;;27.27;;
21837;SDS011;11081;45.946;6.140;2023-03-05T14:13:48;57.85;;;28.83;;
21837;SDS011;11081;45.946;6.140;2023-03-05T14:16:29;51.63;;;26.75;;
21837;SDS011;11081;45.946;6.140;2023-03-05T14:18:59;51.30;;;27.30;;
21837;SDS011;11081;45.946;6.140;2023-03-05T14:21:41;48.17;;;26.95;;
21837;SDS011;11081;45.946;6.140;2023-03-05T14:24:13;51.35;;;27.40;;
21837;SDS011;11081;45.946;6.140;2023-03-05T14:26:48;49.25;;;27.60;;
21837;SDS011;11081;45.946;6.140;2023-03-05T14:29:18;49.67;;;26.63;;
21837;SDS011;11081;45.946;6.140;2023-03-05T14:31:50;47.17;;;26.45;;
21837;SDS011;11081;45.946;6.140;2023-03-05T14:34:20;52.30;;;27.75;;
21837;SDS011;11081;45.946;6.140;2023-03-05T14:36:52;50.92;;;26.80;;
21837;SDS011;11081;45.946;6.140;2023-03-05T14:39:27;52.70;;;25.48;;
21837;SDS011;11081;45.946;6.140;2023-03-05T14:44:59;43.15;;;24.65;;
21837;SDS011;11081;45.946;6.140;2023-03-05T14:47:28;46.90;;;25.25;;
21837;SDS011;11081;45.946;6.140;2023-03-05T14:49:56;51.05;;;24.63;;
21837;SDS011;11081;45.946;6.140;2023-03-05T14:52:24;45.72;;;24.80;;
21837;SDS011;11081;45.946;6.140;2023-03-05T14:54:55;45.38;;;23.85;;
21837;SDS011;11081;45.946;6.140;2023-03-05T14:57:24;47.67;;;24.17;;
21837;SDS011;11081;45.946;6.140;2023-03-05T14:59:54;45.65;;;24.67;;
21837;SDS011;11081;45.946;6.140;2023-03-05T15:02:23;44.97;;;22.80;;